sensor_id;sensor_type;location;lat;lon;timestamp;pressure;altitude;pressure_sealevel;temperature;humidity
53011;BME280;42803;55.762;38.084;2023-05-09T00:00:09;101109.28;;;1.52;65.70
53011;BME280;42803;55.762;38.084;2023-05-09T00:02:42;101112.56;;;1.51;65.60
53011;BME280;42803;55.762;38.084;2023-05-09T00:05:12;101106.31;;;1.49;66.45
53011;BME280;42803;55.762;38.084;2023-05-09T00:07:42;101110.25;;;1.53;65.75
53011;BME280;42803;55.762;38.084;2023-05-09T00:10:11;101107.66;;;1.53;65.69
53011;BME280;42803;55.762;38.084;2023-05-09T00:12:40;101112.59;;;1.33;67.33
53011;BME280;42803;55.762;38.084;2023-05-09T00:15:10;101113.63;;;1.09;68.85
53011;BME280;42803;55.762;38.084;2023-05-09T00:17:40;101116.78;;;0.83;70.66
53011;BME280;42803;55.762;38.084;2023-05-09T00:20:12;101120.63;;;0.49;73.29
53011;BME280;42803;55.762;38.084;2023-05-09T00:22:42;101116.78;;;0.16;75.70
53011;BME280;42803;55.762;38.084;2023-05-09T00:25:11;101128.66;;;-0.08;77.90
53011;BME280;42803;55.762;38.084;2023-05-09T00:27:40;101125.03;;;-0.21;79.83
53011;BME280;42803;55.762;38.084;2023-05-09T00:30:10;101123.47;;;-0.27;80.77
53011;BME280;42803;55.762;38.084;2023-05-09T00:32:39;101126.16;;;-0.14;80.35
53011;BME280;42803;55.762;38.084;2023-05-09T00:35:08;101121.94;;;-0.13;79.51
53011;BME280;42803;55.762;38.084;2023-05-09T00:37:39;101123.19;;;-0.22;80.26
53011;BME280;42803;55.762;38.084;2023-05-09T00:40:08;101119.84;;;-0.16;80.54
53011;BME280;42803;55.762;38.084;2023-05-09T00:42:38;101116.34;;;-0.11;79.54
53011;BME280;42803;55.762;38.084;2023-05-09T00:45:08;101114.50;;;-0.17;79.87
53011;BME280;42803;55.762;38.084;2023-05-09T00:47:37;101122.47;;;-0.21;79.82
53011;BME280;42803;55.762;38.084;2023-05-09T00:50:08;101123.59;;;-0.14;79.79
53011;BME280;42803;55.762;38.084;2023-05-09T00:52:39;101123.34;;;-0.15;79.84
53011;BME280;42803;55.762;38.084;2023-05-09T00:55:09;101123.50;;;-0.03;79.44
53011;BME280;42803;55.762;38.084;2023-05-09T00:57:39;101115.63;;;0.14;77.46
53011;BME280;42803;55.762;38.084;2023-05-09T01:00:09;101119.81;;;0.19;77.55
53011;BME280;42803;55.762;38.084;2023-05-09T01:02:40;101114.22;;;0.16;75.86
53011;BME280;42803;55.762;38.084;2023-05-09T01:05:11;101119.38;;;0.11;75.49
53011;BME280;42803;55.762;38.084;2023-05-09T01:07:46;101122.75;;;0.04;76.51
53011;BME280;42803;55.762;38.084;2023-05-09T01:10:26;101124.75;;;0.12;76.50
53011;BME280;42803;55.762;38.084;2023-05-09T01:13:02;101124.22;;;0.20;76.95
53011;BME280;42803;55.762;38.084;2023-05-09T01:15:36;101114.16;;;0.46;75.52
53011;BME280;42803;55.762;38.084;2023-05-09T01:18:13;101116.53;;;0.63;75.68
53011;BME280;42803;55.762;38.084;2023-05-09T01:20:48;101118.06;;;0.73;75.19
53011;BME280;42803;55.762;38.084;2023-05-09T01:23:55;101117.69;;;0.83;75.11
53011;BME280;42803;55.762;38.084;2023-05-09T01:26:39;101110.66;;;0.88;74.56
53011;BME280;42803;55.762;38.084;2023-05-09T01:29:34;101115.69;;;0.75;76.47
53011;BME280;42803;55.762;38.084;2023-05-09T01:32:07;101117.63;;;0.70;77.15
53011;BME280;42803;55.762;38.084;2023-05-09T01:34:39;101114.47;;;0.79;75.91
53011;BME280;42803;55.762;38.084;2023-05-09T01:37:10;101116.19;;;1.09;75.49
53011;BME280;42803;55.762;38.084;2023-05-09T01:39:45;101110.94;;;1.52;74.15
53011;BME280;42803;55.762;38.084;2023-05-09T01:42:18;101104.28;;;2.03;72.64
53011;BME280;42803;55.762;38.084;2023-05-09T01:44:49;101111.69;;;2.58;71.46
53011;BME280;42803;55.762;38.084;2023-05-09T01:47:20;101112.72;;;3.11;70.42
53011;BME280;42803;55.762;38.084;2023-05-09T01:49:51;101107.16;;;3.61;69.29
53011;BME280;42803;55.762;38.084;2023-05-09T01:52:22;101100.03;;;4.12;67.35
53011;BME280;42803;55.762;38.084;2023-05-09T01:54:52;101103.44;;;4.60;65.77
53011;BME280;42803;55.762;38.084;2023-05-09T01:57:22;101101.59;;;5.07;64.72
53011;BME280;42803;55.762;38.084;2023-05-09T01:59:54;101105.41;;;5.52;63.75
53011;BME280;42803;55.762;38.084;2023-05-09T02:02:25;101096.56;;;5.86;63.23
53011;BME280;42803;55.762;38.084;2023-05-09T02:04:55;101101.03;;;6.23;62.37
53011;BME280;42803;55.762;38.084;2023-05-09T02:07:25;101104.63;;;6.68;61.23
53011;BME280;42803;55.762;38.084;2023-05-09T02:09:57;101102.06;;;7.05;59.46
53011;BME280;42803;55.762;38.084;2023-05-09T02:12:26;101101.47;;;7.52;58.60
53011;BME280;42803;55.762;38.084;2023-05-09T02:14:56;101102.00;;;8.02;57.27
53011;BME280;42803;55.762;38.084;2023-05-09T02:17:26;101099.56;;;8.43;56.38
53011;BME280;42803;55.762;38.084;2023-05-09T02:19:57;101098.69;;;8.74;55.16
53011;BME280;42803;55.762;38.084;2023-05-09T02:22:46;101094.91;;;8.79;54.60
53011;BME280;42803;55.762;38.084;2023-05-09T02:25:16;101093.72;;;9.16;54.20
53011;BME280;42803;55.762;38.084;2023-05-09T02:27:47;101091.59;;;9.20;53.54
53011;BME280;42803;55.762;38.084;2023-05-09T02:30:20;101096.75;;;9.36;52.54
53011;BME280;42803;55.762;38.084;2023-05-09T02:32:55;101101.50;;;9.56;52.47
53011;BME280;42803;55.762;38.084;2023-05-09T02:35:26;101094.97;;;9.93;52.12
53011;BME280;42803;55.762;38.084;2023-05-09T02:37:57;101100.97;;;10.25;50.97
53011;BME280;42803;55.762;38.084;2023-05-09T02:40:29;101098.13;;;10.57;49.51
53011;BME280;42803;55.762;38.084;2023-05-09T02:42:58;101104.78;;;10.79;49.29
53011;BME280;42803;55.762;38.084;2023-05-09T02:45:29;101094.66;;;11.00;48.39
53011;BME280;42803;55.762;38.084;2023-05-09T02:47:58;101106.66;;;11.15;48.53
53011;BME280;42803;55.762;38.084;2023-05-09T02:50:27;101104.13;;;11.77;47.82
53011;BME280;42803;55.762;38.084;2023-05-09T02:52:56;101102.63;;;10.75;47.90
53011;BME280;42803;55.762;38.084;2023-05-09T02:55:26;101103.47;;;8.94;50.98
53011;BME280;42803;55.762;38.084;2023-05-09T02:57:55;101115.59;;;7.70;54.17
53011;BME280;42803;55.762;38.084;2023-05-09T03:00:41;101127.72;;;6.95;57.15
53011;BME280;42803;55.762;38.084;2023-05-09T03:03:12;101125.16;;;6.80;58.27
53011;BME280;42803;55.762;38.084;2023-05-09T03:05:41;101129.06;;;6.77;59.40
53011;BME280;42803;55.762;38.084;2023-05-09T03:08:10;101127.16;;;6.90;59.24
53011;BME280;42803;55.762;38.084;2023-05-09T03:10:39;101121.63;;;6.87;59.96
53011;BME280;42803;55.762;38.084;2023-05-09T03:13:08;101126.72;;;7.08;58.83
53011;BME280;42803;55.762;38.084;2023-05-09T03:15:37;101116.03;;;7.28;58.97
53011;BME280;42803;55.762;38.084;2023-05-09T03:18:10;101124.13;;;7.46;58.26
53011;BME280;42803;55.762;38.084;2023-05-09T03:20:39;101118.94;;;7.46;58.28
53011;BME280;42803;55.762;38.084;2023-05-09T03:23:09;101126.22;;;7.34;57.97
53011;BME280;42803;55.762;38.084;2023-05-09T03:25:38;101127.03;;;7.26;57.51
53011;BME280;42803;55.762;38.084;2023-05-09T03:28:07;101131.88;;;7.16;57.63
53011;BME280;42803;55.762;38.084;2023-05-09T03:30:36;101128.50;;;7.24;57.28
53011;BME280;42803;55.762;38.084;2023-05-09T03:33:10;101133.31;;;7.28;57.15
53011;BME280;42803;55.762;38.084;2023-05-09T03:35:39;101125.31;;;7.33;57.04
53011;BME280;42803;55.762;38.084;2023-05-09T03:38:08;101129.91;;;7.36;56.47
53011;BME280;42803;55.762;38.084;2023-05-09T03:40:37;101134.72;;;7.40;56.01
53011;BME280;42803;55.762;38.084;2023-05-09T03:43:09;101135.22;;;7.52;55.82
53011;BME280;42803;55.762;38.084;2023-05-09T03:45:38;101135.25;;;7.75;55.39
53011;BME280;42803;55.762;38.084;2023-05-09T03:48:10;101130.28;;;7.92;54.57
53011;BME280;42803;55.762;38.084;2023-05-09T03:50:47;101132.22;;;8.09;54.20
53011;BME280;42803;55.762;38.084;2023-05-09T03:53:16;101127.69;;;8.15;53.98
53011;BME280;42803;55.762;38.084;2023-05-09T03:55:48;101136.91;;;8.20;53.75
53011;BME280;42803;55.762;38.084;2023-05-09T03:58:18;101131.63;;;8.12;54.28
53011;BME280;42803;55.762;38.084;2023-05-09T04:00:47;101138.28;;;8.17;53.79
53011;BME280;42803;55.762;38.084;2023-05-09T04:03:22;101145.91;;;8.38;53.09
53011;BME280;42803;55.762;38.084;2023-05-09T04:05:53;101137.63;;;8.26;52.37
53011;BME280;42803;55.762;38.084;2023-05-09T04:08:33;101147.31;;;7.97;52.71
53011;BME280;42803;55.762;38.084;2023-05-09T04:11:04;101146.66;;;7.91;52.83
53011;BME280;42803;55.762;38.084;2023-05-09T04:13:34;101141.59;;;7.93;52.33
53011;BME280;42803;55.762;38.084;2023-05-09T04:16:11;101148.50;;;7.92;52.46
53011;BME280;42803;55.762;38.084;2023-05-09T04:18:42;101143.00;;;8.05;52.26
53011;BME280;42803;55.762;38.084;2023-05-09T04:21:11;101142.00;;;8.12;52.01
53011;BME280;42803;55.762;38.084;2023-05-09T04:23:41;101145.84;;;8.22;51.80
53011;BME280;42803;55.762;38.084;2023-05-09T04:26:11;101144.06;;;8.37;52.41
53011;BME280;42803;55.762;38.084;2023-05-09T04:28:44;101148.72;;;8.56;52.22
53011;BME280;42803;55.762;38.084;2023-05-09T04:31:15;101137.97;;;8.68;52.39
53011;BME280;42803;55.762;38.084;2023-05-09T04:33:50;101144.94;;;8.76;52.35
53011;BME280;42803;55.762;38.084;2023-05-09T04:36:21;101145.56;;;8.90;51.90
53011;BME280;42803;55.762;38.084;2023-05-09T04:38:49;101142.69;;;8.95;51.59
53011;BME280;42803;55.762;38.084;2023-05-09T04:41:23;101146.13;;;9.03;51.15
53011;BME280;42803;55.762;38.084;2023-05-09T04:43:52;101146.22;;;9.12;50.78
53011;BME280;42803;55.762;38.084;2023-05-09T04:46:24;101139.84;;;9.17;49.57
53011;BME280;42803;55.762;38.084;2023-05-09T04:48:56;101137.72;;;9.21;49.07
53011;BME280;42803;55.762;38.084;2023-05-09T04:51:25;101141.50;;;9.32;48.70
53011;BME280;42803;55.762;38.084;2023-05-09T04:53:55;101136.28;;;9.32;48.80
53011;BME280;42803;55.762;38.084;2023-05-09T04:56:30;101133.59;;;9.39;48.66
53011;BME280;42803;55.762;38.084;2023-05-09T04:59:01;101140.69;;;9.49;48.17
53011;BME280;42803;55.762;38.084;2023-05-09T05:01:30;101142.53;;;9.50;48.24
53011;BME280;42803;55.762;38.084;2023-05-09T05:04:01;101146.97;;;9.67;48.22
53011;BME280;42803;55.762;38.084;2023-05-09T05:06:32;101145.88;;;9.89;48.03
53011;BME280;42803;55.762;38.084;2023-05-09T05:09:01;101144.22;;;9.98;46.76
53011;BME280;42803;55.762;38.084;2023-05-09T05:11:31;101144.13;;;10.06;46.72
53011;BME280;42803;55.762;38.084;2023-05-09T05:14:02;101146.03;;;10.15;46.49
53011;BME280;42803;55.762;38.084;2023-05-09T05:16:50;101140.38;;;10.19;45.21
53011;BME280;42803;55.762;38.084;2023-05-09T05:22:08;101143.78;;;10.02;44.28
53011;BME280;42803;55.762;38.084;2023-05-09T05:24:39;101145.97;;;10.07;44.00
53011;BME280;42803;55.762;38.084;2023-05-09T05:27:27;101141.38;;;10.04;44.55
53011;BME280;42803;55.762;38.084;2023-05-09T05:29:57;101141.81;;;10.33;45.26
53011;BME280;42803;55.762;38.084;2023-05-09T05:32:26;101133.47;;;10.53;44.25
53011;BME280;42803;55.762;38.084;2023-05-09T05:34:57;101137.34;;;10.74;43.85
53011;BME280;42803;55.762;38.084;2023-05-09T05:37:26;101136.44;;;10.82;44.08
53011;BME280;42803;55.762;38.084;2023-05-09T05:39:55;101124.47;;;10.84;43.20
53011;BME280;42803;55.762;38.084;2023-05-09T05:42:25;101140.00;;;10.91;43.67
53011;BME280;42803;55.762;38.084;2023-05-09T05:44:54;101126.31;;;10.94;43.59
53011;BME280;42803;55.762;38.084;2023-05-09T05:47:23;101132.91;;;10.82;43.37
53011;BME280;42803;55.762;38.084;2023-05-09T05:49:53;101128.13;;;10.78;42.00
53011;BME280;42803;55.762;38.084;2023-05-09T05:52:24;101128.47;;;10.89;41.66
53011;BME280;42803;55.762;38.084;2023-05-09T05:54:54;101134.59;;;10.98;42.11
53011;BME280;42803;55.762;38.084;2023-05-09T05:57:24;101130.28;;;10.90;42.50
53011;BME280;42803;55.762;38.084;2023-05-09T05:59:54;101133.09;;;11.01;42.11
53011;BME280;42803;55.762;38.084;2023-05-09T06:02:24;101129.41;;;11.07;41.67
53011;BME280;42803;55.762;38.084;2023-05-09T06:04:53;101127.53;;;11.06;41.56
53011;BME280;42803;55.762;38.084;2023-05-09T06:07:24;101125.56;;;11.04;41.78
53011;BME280;42803;55.762;38.084;2023-05-09T06:10:10;101121.25;;;11.13;41.87
53011;BME280;42803;55.762;38.084;2023-05-09T06:12:40;101130.19;;;11.15;41.67
53011;BME280;42803;55.762;38.084;2023-05-09T06:15:10;101134.47;;;10.97;40.27
53011;BME280;42803;55.762;38.084;2023-05-09T06:17:43;101129.38;;;10.98;40.55
53011;BME280;42803;55.762;38.084;2023-05-09T06:20:12;101127.09;;;11.02;40.36
53011;BME280;42803;55.762;38.084;2023-05-09T06:22:42;101124.19;;;11.07;40.26
53011;BME280;42803;55.762;38.084;2023-05-09T06:25:12;101114.03;;;11.19;40.21
53011;BME280;42803;55.762;38.084;2023-05-09T06:27:41;101112.16;;;11.44;40.16
53011;BME280;42803;55.762;38.084;2023-05-09T06:30:12;101123.19;;;11.67;39.08
53011;BME280;42803;55.762;38.084;2023-05-09T06:32:53;101109.19;;;11.67;38.31
53011;BME280;42803;55.762;38.084;2023-05-09T06:35:24;101105.78;;;11.94;38.03
53011;BME280;42803;55.762;38.084;2023-05-09T06:37:55;101106.28;;;12.26;38.34
53011;BME280;42803;55.762;38.084;2023-05-09T06:40:25;101100.09;;;12.34;38.53
53011;BME280;42803;55.762;38.084;2023-05-09T06:42:54;101087.97;;;12.26;38.35
53011;BME280;42803;55.762;38.084;2023-05-09T06:45:23;101094.38;;;12.38;38.16
53011;BME280;42803;55.762;38.084;2023-05-09T06:47:53;101103.66;;;12.26;37.76
53011;BME280;42803;55.762;38.084;2023-05-09T06:50:23;101099.53;;;12.47;37.73
53011;BME280;42803;55.762;38.084;2023-05-09T06:52:52;101099.44;;;13.11;37.27
53011;BME280;42803;55.762;38.084;2023-05-09T06:55:22;101090.09;;;13.23;36.99
53011;BME280;42803;55.762;38.084;2023-05-09T06:57:51;101083.97;;;13.52;36.27
53011;BME280;42803;55.762;38.084;2023-05-09T07:00:21;101084.66;;;13.88;35.87
53011;BME280;42803;55.762;38.084;2023-05-09T07:02:51;101084.97;;;14.02;36.44
53011;BME280;42803;55.762;38.084;2023-05-09T07:05:20;101076.69;;;13.97;36.58
53011;BME280;42803;55.762;38.084;2023-05-09T07:07:49;101071.69;;;14.50;36.01
53011;BME280;42803;55.762;38.084;2023-05-09T07:10:23;101063.66;;;14.69;35.64
53011;BME280;42803;55.762;38.084;2023-05-09T07:12:52;101073.66;;;14.03;36.41
53011;BME280;42803;55.762;38.084;2023-05-09T07:15:21;101077.00;;;14.21;35.88
53011;BME280;42803;55.762;38.084;2023-05-09T07:18:08;101060.53;;;14.52;34.97
53011;BME280;42803;55.762;38.084;2023-05-09T07:20:37;101065.31;;;15.29;33.96
53011;BME280;42803;55.762;38.084;2023-05-09T07:23:07;101064.34;;;15.92;33.42
53011;BME280;42803;55.762;38.084;2023-05-09T07:25:37;101063.28;;;15.90;32.63
53011;BME280;42803;55.762;38.084;2023-05-09T07:28:07;101059.56;;;15.55;32.93
53011;BME280;42803;55.762;38.084;2023-05-09T07:30:38;101072.22;;;14.76;33.12
53011;BME280;42803;55.762;38.084;2023-05-09T07:33:07;101071.25;;;14.35;35.16
53011;BME280;42803;55.762;38.084;2023-05-09T07:35:36;101068.72;;;14.16;35.34
53011;BME280;42803;55.762;38.084;2023-05-09T07:38:05;101074.06;;;13.97;36.05
53011;BME280;42803;55.762;38.084;2023-05-09T07:40:34;101063.69;;;13.99;35.22
53011;BME280;42803;55.762;38.084;2023-05-09T07:43:06;101064.38;;;13.77;34.77
53011;BME280;42803;55.762;38.084;2023-05-09T07:45:35;101065.22;;;13.86;35.81
53011;BME280;42803;55.762;38.084;2023-05-09T07:48:05;101059.25;;;14.18;35.11
53011;BME280;42803;55.762;38.084;2023-05-09T07:50:34;101059.91;;;14.05;35.06
53011;BME280;42803;55.762;38.084;2023-05-09T07:53:03;101056.38;;;14.05;35.20
53011;BME280;42803;55.762;38.084;2023-05-09T07:55:33;101065.66;;;13.62;34.32
53011;BME280;42803;55.762;38.084;2023-05-09T07:58:03;101052.56;;;13.72;35.02
53011;BME280;42803;55.762;38.084;2023-05-09T08:00:53;101061.03;;;13.88;34.15
53011;BME280;42803;55.762;38.084;2023-05-09T08:03:23;101056.53;;;13.77;34.29
53011;BME280;42803;55.762;38.084;2023-05-09T08:11:48;101031.38;;;14.59;33.67
53011;BME280;42803;55.762;38.084;2023-05-09T08:14:17;101024.13;;;14.67;32.54
53011;BME280;42803;55.762;38.084;2023-05-09T08:16:48;101030.13;;;14.46;32.48
53011;BME280;42803;55.762;38.084;2023-05-09T08:19:17;101020.97;;;14.71;33.87
53011;BME280;42803;55.762;38.084;2023-05-09T08:21:47;101023.28;;;15.09;32.95
53011;BME280;42803;55.762;38.084;2023-05-09T08:24:16;101015.84;;;14.83;32.84
53011;BME280;42803;55.762;38.084;2023-05-09T08:26:46;101022.00;;;14.43;33.00
53011;BME280;42803;55.762;38.084;2023-05-09T08:32:04;101025.53;;;13.63;34.14
53011;BME280;42803;55.762;38.084;2023-05-09T08:34:33;101020.38;;;13.25;34.44
53011;BME280;42803;55.762;38.084;2023-05-09T08:37:03;101022.13;;;12.97;34.46
53011;BME280;42803;55.762;38.084;2023-05-09T08:39:32;101017.13;;;13.09;34.84
53011;BME280;42803;55.762;38.084;2023-05-09T08:42:02;101013.50;;;13.17;34.25
53011;BME280;42803;55.762;38.084;2023-05-09T08:44:31;101004.44;;;13.43;34.18
53011;BME280;42803;55.762;38.084;2023-05-09T08:47:01;101007.16;;;13.63;33.89
53011;BME280;42803;55.762;38.084;2023-05-09T08:49:33;100993.28;;;13.74;34.05
53011;BME280;42803;55.762;38.084;2023-05-09T08:52:03;100997.53;;;14.03;33.34
53011;BME280;42803;55.762;38.084;2023-05-09T08:54:34;100980.63;;;14.81;32.01
53011;BME280;42803;55.762;38.084;2023-05-09T08:57:03;100991.53;;;15.28;31.42
53011;BME280;42803;55.762;38.084;2023-05-09T08:59:33;100977.19;;;15.56;30.76
53011;BME280;42803;55.762;38.084;2023-05-09T09:02:05;100969.72;;;16.17;30.18
53011;BME280;42803;55.762;38.084;2023-05-09T09:04:37;100973.59;;;16.55;29.21
53011;BME280;42803;55.762;38.084;2023-05-09T09:07:07;100969.53;;;16.83;29.84
53011;BME280;42803;55.762;38.084;2023-05-09T09:09:38;100978.31;;;16.60;29.54
53011;BME280;42803;55.762;38.084;2023-05-09T09:12:14;100970.13;;;15.77;30.35
53011;BME280;42803;55.762;38.084;2023-05-09T09:17:53;100967.13;;;15.19;30.64
53011;BME280;42803;55.762;38.084;2023-05-09T09:20:26;100964.50;;;15.41;30.60
53011;BME280;42803;55.762;38.084;2023-05-09T09:22:59;100957.28;;;15.70;30.65
53011;BME280;42803;55.762;38.084;2023-05-09T09:28:37;100953.63;;;16.02;30.19
53011;BME280;42803;55.762;38.084;2023-05-09T09:31:24;100948.75;;;16.06;30.15
53011;BME280;42803;55.762;38.084;2023-05-09T09:33:58;100949.03;;;15.88;30.68
53011;BME280;42803;55.762;38.084;2023-05-09T09:36:30;100949.66;;;16.07;30.46
53011;BME280;42803;55.762;38.084;2023-05-09T09:39:01;100948.25;;;16.79;30.00
53011;BME280;42803;55.762;38.084;2023-05-09T09:41:32;100944.34;;;17.21;29.17
53011;BME280;42803;55.762;38.084;2023-05-09T09:44:08;100943.50;;;17.34;28.53
53011;BME280;42803;55.762;38.084;2023-05-09T09:46:42;100947.78;;;16.97;28.57
53011;BME280;42803;55.762;38.084;2023-05-09T09:49:13;100939.28;;;17.01;28.49
53011;BME280;42803;55.762;38.084;2023-05-09T09:51:44;100940.91;;;16.75;29.33
53011;BME280;42803;55.762;38.084;2023-05-09T09:54:17;100949.16;;;16.92;30.17
53011;BME280;42803;55.762;38.084;2023-05-09T09:56:47;100944.75;;;16.57;29.81
53011;BME280;42803;55.762;38.084;2023-05-09T09:59:18;100941.25;;;16.23;30.35
53011;BME280;42803;55.762;38.084;2023-05-09T10:01:55;100941.75;;;16.07;29.85
53011;BME280;42803;55.762;38.084;2023-05-09T10:04:27;100942.16;;;15.68;30.00
53011;BME280;42803;55.762;38.084;2023-05-09T10:07:00;100936.31;;;15.50;29.96
53011;BME280;42803;55.762;38.084;2023-05-09T10:09:33;100933.59;;;15.60;29.63
53011;BME280;42803;55.762;38.084;2023-05-09T10:12:04;100929.31;;;15.28;29.39
53011;BME280;42803;55.762;38.084;2023-05-09T10:14:35;100936.41;;;15.83;29.71
53011;BME280;42803;55.762;38.084;2023-05-09T10:17:04;100930.09;;;15.81;29.44
53011;BME280;42803;55.762;38.084;2023-05-09T10:19:34;100933.69;;;15.94;29.52
53011;BME280;42803;55.762;38.084;2023-05-09T10:22:09;100927.28;;;16.02;30.13
53011;BME280;42803;55.762;38.084;2023-05-09T10:24:46;100930.66;;;16.11;29.53
53011;BME280;42803;55.762;38.084;2023-05-09T10:27:19;100930.97;;;16.38;29.57
53011;BME280;42803;55.762;38.084;2023-05-09T10:29:54;100927.78;;;16.65;28.71
53011;BME280;42803;55.762;38.084;2023-05-09T10:32:30;100923.41;;;16.54;28.88
53011;BME280;42803;55.762;38.084;2023-05-09T10:35:04;100921.63;;;16.76;29.07
53011;BME280;42803;55.762;38.084;2023-05-09T10:37:36;100922.19;;;17.19;28.27
53011;BME280;42803;55.762;38.084;2023-05-09T10:40:06;100916.63;;;17.51;27.94
53011;BME280;42803;55.762;38.084;2023-05-09T10:42:36;100904.25;;;18.25;27.79
53011;BME280;42803;55.762;38.084;2023-05-09T10:45:07;100899.56;;;18.73;26.91
53011;BME280;42803;55.762;38.084;2023-05-09T10:47:37;100902.53;;;19.04;27.05
53011;BME280;42803;55.762;38.084;2023-05-09T10:50:08;100900.63;;;18.50;27.77
53011;BME280;42803;55.762;38.084;2023-05-09T10:53:04;100904.50;;;18.55;27.67
53011;BME280;42803;55.762;38.084;2023-05-09T10:55:35;100887.91;;;18.44;28.02
53011;BME280;42803;55.762;38.084;2023-05-09T10:58:19;100894.63;;;18.01;27.42
53011;BME280;42803;55.762;38.084;2023-05-09T11:00:51;100894.13;;;17.45;27.66
53011;BME280;42803;55.762;38.084;2023-05-09T11:03:23;100891.44;;;16.73;28.36
53011;BME280;42803;55.762;38.084;2023-05-09T11:05:55;100888.00;;;16.62;29.28
53011;BME280;42803;55.762;38.084;2023-05-09T11:08:27;100893.19;;;16.61;29.58
53011;BME280;42803;55.762;38.084;2023-05-09T11:10:58;100881.91;;;16.28;29.54
53011;BME280;42803;55.762;38.084;2023-05-09T11:13:30;100883.84;;;15.85;29.99
53011;BME280;42803;55.762;38.084;2023-05-09T11:16:17;100882.44;;;15.78;30.42
53011;BME280;42803;55.762;38.084;2023-05-09T11:18:53;100881.22;;;15.63;30.20
53011;BME280;42803;55.762;38.084;2023-05-09T11:21:22;100875.13;;;15.74;30.07
53011;BME280;42803;55.762;38.084;2023-05-09T11:23:54;100872.72;;;15.77;30.33
53011;BME280;42803;55.762;38.084;2023-05-09T11:26:27;100861.59;;;15.70;29.52
53011;BME280;42803;55.762;38.084;2023-05-09T11:28:58;100863.88;;;15.99;29.88
53011;BME280;42803;55.762;38.084;2023-05-09T11:31:29;100855.78;;;16.66;29.59
53011;BME280;42803;55.762;38.084;2023-05-09T11:34:00;100848.06;;;17.53;28.50
53011;BME280;42803;55.762;38.084;2023-05-09T11:36:31;100836.38;;;18.51;28.02
53011;BME280;42803;55.762;38.084;2023-05-09T11:39:05;100839.94;;;19.46;26.96
53011;BME280;42803;55.762;38.084;2023-05-09T11:41:45;100838.16;;;19.18;26.49
53011;BME280;42803;55.762;38.084;2023-05-09T11:44:16;100834.09;;;19.10;26.16
53011;BME280;42803;55.762;38.084;2023-05-09T11:46:47;100828.63;;;18.81;26.74
53011;BME280;42803;55.762;38.084;2023-05-09T11:49:17;100838.78;;;18.35;27.25
53011;BME280;42803;55.762;38.084;2023-05-09T11:51:47;100834.78;;;17.15;27.20
53011;BME280;42803;55.762;38.084;2023-05-09T11:54:17;100833.81;;;16.77;27.64
53011;BME280;42803;55.762;38.084;2023-05-09T11:56:47;100834.94;;;16.93;27.78
53011;BME280;42803;55.762;38.084;2023-05-09T11:59:16;100832.81;;;16.75;28.19
53011;BME280;42803;55.762;38.084;2023-05-09T12:01:47;100834.28;;;16.48;28.52
53011;BME280;42803;55.762;38.084;2023-05-09T12:04:16;100821.84;;;16.00;29.28
53011;BME280;42803;55.762;38.084;2023-05-09T12:06:46;100841.44;;;15.70;30.29
53011;BME280;42803;55.762;38.084;2023-05-09T12:09:17;100831.72;;;15.25;30.59
53011;BME280;42803;55.762;38.084;2023-05-09T12:11:47;100839.16;;;14.87;30.72
53011;BME280;42803;55.762;38.084;2023-05-09T12:14:28;100829.34;;;14.84;30.93
53011;BME280;42803;55.762;38.084;2023-05-09T12:16:57;100839.41;;;14.90;31.93
53011;BME280;42803;55.762;38.084;2023-05-09T12:19:27;100827.84;;;14.56;31.53
53011;BME280;42803;55.762;38.084;2023-05-09T12:21:57;100833.78;;;14.43;31.63
53011;BME280;42803;55.762;38.084;2023-05-09T12:24:28;100830.50;;;14.35;31.25
53011;BME280;42803;55.762;38.084;2023-05-09T12:26:58;100823.41;;;14.34;31.58
53011;BME280;42803;55.762;38.084;2023-05-09T12:29:28;100821.31;;;14.30;31.65
53011;BME280;42803;55.762;38.084;2023-05-09T12:31:58;100820.19;;;14.17;31.91
53011;BME280;42803;55.762;38.084;2023-05-09T12:34:28;100810.59;;;14.07;32.10
53011;BME280;42803;55.762;38.084;2023-05-09T12:36:57;100817.44;;;13.95;31.91
53011;BME280;42803;55.762;38.084;2023-05-09T12:39:31;100805.13;;;13.83;32.02
53011;BME280;42803;55.762;38.084;2023-05-09T12:42:00;100801.69;;;14.05;31.75
53011;BME280;42803;55.762;38.084;2023-05-09T12:44:29;100795.91;;;14.09;31.59
53011;BME280;42803;55.762;38.084;2023-05-09T12:47:00;100797.75;;;14.00;31.68
53011;BME280;42803;55.762;38.084;2023-05-09T12:49:30;100798.00;;;13.93;31.78
53011;BME280;42803;55.762;38.084;2023-05-09T12:51:59;100785.72;;;13.81;31.33
53011;BME280;42803;55.762;38.084;2023-05-09T12:54:33;100784.13;;;13.83;31.79
53011;BME280;42803;55.762;38.084;2023-05-09T12:57:02;100784.50;;;13.98;31.31
53011;BME280;42803;55.762;38.084;2023-05-09T12:59:32;100778.72;;;14.45;31.44
53011;BME280;42803;55.762;38.084;2023-05-09T13:02:01;100769.91;;;14.86;31.11
53011;BME280;42803;55.762;38.084;2023-05-09T13:04:30;100762.63;;;15.50;30.80
53011;BME280;42803;55.762;38.084;2023-05-09T13:06:59;100760.03;;;16.07;30.13
53011;BME280;42803;55.762;38.084;2023-05-09T13:09:28;100762.09;;;16.23;29.99
53011;BME280;42803;55.762;38.084;2023-05-09T13:11:59;100761.94;;;16.21;30.17
53011;BME280;42803;55.762;38.084;2023-05-09T13:14:29;100751.53;;;16.35;30.14
53011;BME280;42803;55.762;38.084;2023-05-09T13:16:59;100745.28;;;16.69;29.26
53011;BME280;42803;55.762;38.084;2023-05-09T13:19:28;100752.94;;;16.90;29.24
53011;BME280;42803;55.762;38.084;2023-05-09T13:21:57;100741.38;;;16.88;28.50